sensor_id;sensor_type;location;lat;lon;timestamp;P1;durP1;ratioP1;P2;durP2;ratioP2
11887;SDS011;6003;42.756;23.130;2023-07-31T00:00:03;3.20;;;3.00;;
11887;SDS011;6003;42.756;23.130;2023-07-31T00:02:31;3.00;;;2.80;;
11887;SDS011;6003;42.756;23.130;2023-07-31T00:05:00;3.27;;;2.97;;
11887;SDS011;6003;42.756;23.130;2023-07-31T00:07:27;3.10;;;2.90;;
11887;SDS011;6003;42.756;23.130;2023-07-31T00:09:53;4.00;;;3.00;;
11887;SDS011;6003;42.756;23.130;2023-07-31T00:12:21;3.40;;;3.10;;
11887;SDS011;6003;42.756;23.130;2023-07-31T00:14:48;3.40;;;3.20;;
11887;SDS011;6003;42.756;23.130;2023-07-31T00:17:16;5.57;;;3.37;;
11887;SDS011;6003;42.756;23.130;2023-07-31T00:19:43;4.17;;;3.77;;
11887;SDS011;6003;42.756;23.130;2023-07-31T00:22:12;4.60;;;4.20;;
11887;SDS011;6003;42.756;23.130;2023-07-31T00:24:39;4.67;;;4.10;;
11887;SDS011;6003;42.756;23.130;2023-07-31T00:27:06;5.23;;;4.23;;
11887;SDS011;6003;42.756;23.130;2023-07-31T00:29:33;4.77;;;4.37;;
11887;SDS011;6003;42.756;23.130;2023-07-31T00:32:00;4.77;;;4.37;;
11887;SDS011;6003;42.756;23.130;2023-07-31T00:34:26;4.93;;;4.53;;
11887;SDS011;6003;42.756;23.130;2023-07-31T00:36:53;4.90;;;4.50;;
11887;SDS011;6003;42.756;23.130;2023-07-31T00:39:22;5.77;;;4.50;;
11887;SDS011;6003;42.756;23.130;2023-07-31T00:41:49;4.57;;;4.17;;
11887;SDS011;6003;42.756;23.130;2023-07-31T00:44:16;6.17;;;4.53;;
11887;SDS011;6003;42.756;23.130;2023-07-31T00:46:44;5.43;;;4.90;;
11887;SDS011;6003;42.756;23.130;2023-07-31T00:49:10;6.20;;;4.97;;
11887;SDS011;6003;42.756;23.130;2023-07-31T00:51:38;6.30;;;5.50;;
11887;SDS011;6003;42.756;23.130;2023-07-31T00:54:05;6.63;;;5.63;;
11887;SDS011;6003;42.756;23.130;2023-07-31T00:56:34;9.07;;;5.90;;
11887;SDS011;6003;42.756;23.130;2023-07-31T00:59:07;7.90;;;7.07;;
11887;SDS011;6003;42.756;23.130;2023-07-31T01:01:34;10.17;;;7.10;;
11887;SDS011;6003;42.756;23.130;2023-07-31T01:04:01;10.13;;;8.23;;
11887;SDS011;6003;42.756;23.130;2023-07-31T01:06:30;10.33;;;8.10;;
11887;SDS011;6003;42.756;23.130;2023-07-31T01:09:02;10.00;;;8.03;;
11887;SDS011;6003;42.756;23.130;2023-07-31T01:11:31;9.30;;;7.87;;
11887;SDS011;6003;42.756;23.130;2023-07-31T01:14:02;12.60;;;8.10;;
11887;SDS011;6003;42.756;23.130;2023-07-31T01:16:29;10.80;;;8.00;;
11887;SDS011;6003;42.756;23.130;2023-07-31T01:18:58;11.27;;;8.70;;
11887;SDS011;6003;42.756;23.130;2023-07-31T01:21:30;10.67;;;7.93;;
11887;SDS011;6003;42.756;23.130;2023-07-31T01:24:34;9.87;;;7.77;;
11887;SDS011;6003;42.756;23.130;2023-07-31T01:27:10;10.57;;;8.10;;
11887;SDS011;6003;42.756;23.130;2023-07-31T01:29:43;11.13;;;8.63;;
11887;SDS011;6003;42.756;23.130;2023-07-31T01:32:13;11.93;;;8.97;;
11887;SDS011;6003;42.756;23.130;2023-07-31T01:34:44;11.30;;;8.67;;
11887;SDS011;6003;42.756;23.130;2023-07-31T01:37:12;13.23;;;9.47;;
11887;SDS011;6003;42.756;23.130;2023-07-31T01:39:38;12.03;;;9.50;;
11887;SDS011;6003;42.756;23.130;2023-07-31T01:42:05;12.73;;;10.27;;
11887;SDS011;6003;42.756;23.130;2023-07-31T01:44:34;15.60;;;9.93;;
11887;SDS011;6003;42.756;23.130;2023-07-31T01:47:01;14.50;;;10.00;;
11887;SDS011;6003;42.756;23.130;2023-07-31T01:49:28;13.93;;;10.40;;
11887;SDS011;6003;42.756;23.130;2023-07-31T01:51:55;16.43;;;10.77;;
11887;SDS011;6003;42.756;23.130;2023-07-31T01:54:21;15.13;;;9.97;;
11887;SDS011;6003;42.756;23.130;2023-07-31T01:56:48;16.57;;;11.33;;
11887;SDS011;6003;42.756;23.130;2023-07-31T01:59:15;13.63;;;10.07;;
11887;SDS011;6003;42.756;23.130;2023-07-31T02:01:43;13.50;;;9.53;;
11887;SDS011;6003;42.756;23.130;2023-07-31T02:04:10;15.40;;;10.80;;
11887;SDS011;6003;42.756;23.130;2023-07-31T02:06:37;16.97;;;10.73;;
11887;SDS011;6003;42.756;23.130;2023-07-31T02:09:05;15.07;;;10.40;;
11887;SDS011;6003;42.756;23.130;2023-07-31T02:11:31;13.97;;;10.40;;
11887;SDS011;6003;42.756;23.130;2023-07-31T02:13:58;12.53;;;10.00;;
11887;SDS011;6003;42.756;23.130;2023-07-31T02:16:25;15.67;;;10.80;;
11887;SDS011;6003;42.756;23.130;2023-07-31T02:18:53;12.80;;;9.57;;
11887;SDS011;6003;42.756;23.130;2023-07-31T02:21:20;12.33;;;9.17;;
11887;SDS011;6003;42.756;23.130;2023-07-31T02:23:47;12.90;;;9.80;;
11887;SDS011;6003;42.756;23.130;2023-07-31T02:26:14;15.13;;;9.33;;
11887;SDS011;6003;42.756;23.130;2023-07-31T02:28:40;14.07;;;10.13;;
11887;SDS011;6003;42.756;23.130;2023-07-31T02:31:08;14.07;;;10.50;;
11887;SDS011;6003;42.756;23.130;2023-07-31T02:33:35;13.33;;;10.10;;
11887;SDS011;6003;42.756;23.130;2023-07-31T02:36:03;15.00;;;10.47;;
11887;SDS011;6003;42.756;23.130;2023-07-31T02:38:30;15.10;;;10.50;;
11887;SDS011;6003;42.756;23.130;2023-07-31T02:40:57;16.13;;;10.87;;
11887;SDS011;6003;42.756;23.130;2023-07-31T02:43:24;16.50;;;10.90;;
11887;SDS011;6003;42.756;23.130;2023-07-31T02:45:51;15.23;;;10.13;;
11887;SDS011;6003;42.756;23.130;2023-07-31T02:48:18;14.00;;;10.13;;
11887;SDS011;6003;42.756;23.130;2023-07-31T02:50:45;18.53;;;11.23;;
11887;SDS011;6003;42.756;23.130;2023-07-31T02:53:13;14.13;;;10.27;;
11887;SDS011;6003;42.756;23.130;2023-07-31T02:55:40;16.00;;;10.50;;
11887;SDS011;6003;42.756;23.130;2023-07-31T02:58:07;16.63;;;11.20;;
11887;SDS011;6003;42.756;23.130;2023-07-31T03:00:34;13.90;;;10.00;;
11887;SDS011;6003;42.756;23.130;2023-07-31T03:03:01;14.93;;;10.70;;
11887;SDS011;6003;42.756;23.130;2023-07-31T03:05:28;16.30;;;10.70;;
11887;SDS011;6003;42.756;23.130;2023-07-31T03:07:54;14.33;;;10.10;;
11887;SDS011;6003;42.756;23.130;2023-07-31T03:10:22;15.13;;;11.10;;
11887;SDS011;6003;42.756;23.130;2023-07-31T03:12:49;16.93;;;11.17;;
11887;SDS011;6003;42.756;23.130;2023-07-31T03:15:16;16.53;;;11.17;;
11887;SDS011;6003;42.756;23.130;2023-07-31T03:17:43;16.07;;;10.67;;
11887;SDS011;6003;42.756;23.130;2023-07-31T03:20:10;14.67;;;11.17;;
11887;SDS011;6003;42.756;23.130;2023-07-31T03:22:37;14.50;;;10.60;;
11887;SDS011;6003;42.756;23.130;2023-07-31T03:25:04;16.13;;;11.10;;
11887;SDS011;6003;42.756;23.130;2023-07-31T03:27:33;14.67;;;10.20;;
11887;SDS011;6003;42.756;23.130;2023-07-31T03:30:00;16.97;;;11.37;;
11887;SDS011;6003;42.756;23.130;2023-07-31T03:32:28;16.93;;;11.33;;
11887;SDS011;6003;42.756;23.130;2023-07-31T03:34:55;16.53;;;11.10;;
11887;SDS011;6003;42.756;23.130;2023-07-31T03:37:22;14.07;;;9.83;;
11887;SDS011;6003;42.756;23.130;2023-07-31T03:39:49;14.27;;;10.17;;
11887;SDS011;6003;42.756;23.130;2023-07-31T03:42:15;19.67;;;11.97;;
11887;SDS011;6003;42.756;23.130;2023-07-31T03:44:44;15.27;;;10.13;;
11887;SDS011;6003;42.756;23.130;2023-07-31T03:47:11;16.83;;;11.00;;
11887;SDS011;6003;42.756;23.130;2023-07-31T03:49:37;17.13;;;10.90;;
11887;SDS011;6003;42.756;23.130;2023-07-31T03:52:04;14.37;;;9.87;;
11887;SDS011;6003;42.756;23.130;2023-07-31T03:54:31;17.87;;;10.33;;
11887;SDS011;6003;42.756;23.130;2023-07-31T03:56:58;16.60;;;11.07;;
11887;SDS011;6003;42.756;23.130;2023-07-31T03:59:25;18.27;;;11.57;;
11887;SDS011;6003;42.756;23.130;2023-07-31T04:01:53;15.60;;;10.33;;
11887;SDS011;6003;42.756;23.130;2023-07-31T04:04:20;16.80;;;11.03;;
11887;SDS011;6003;42.756;23.130;2023-07-31T04:06:47;18.80;;;11.50;;
11887;SDS011;6003;42.756;23.130;2023-07-31T04:09:14;14.33;;;10.57;;
11887;SDS011;6003;42.756;23.130;2023-07-31T04:11:41;15.63;;;10.13;;
11887;SDS011;6003;42.756;23.130;2023-07-31T04:14:07;14.37;;;9.90;;
11887;SDS011;6003;42.756;23.130;2023-07-31T04:16:34;14.93;;;9.30;;
11887;SDS011;6003;42.756;23.130;2023-07-31T04:19:05;16.33;;;10.63;;
11887;SDS011;6003;42.756;23.130;2023-07-31T04:21:32;17.00;;;10.83;;
11887;SDS011;6003;42.756;23.130;2023-07-31T04:23:59;15.20;;;10.93;;
11887;SDS011;6003;42.756;23.130;2023-07-31T04:26:26;16.00;;;10.07;;
11887;SDS011;6003;42.756;23.130;2023-07-31T04:28:52;15.13;;;10.03;;
11887;SDS011;6003;42.756;23.130;2023-07-31T04:31:19;14.43;;;10.13;;
11887;SDS011;6003;42.756;23.130;2023-07-31T04:33:46;13.27;;;9.90;;
11887;SDS011;6003;42.756;23.130;2023-07-31T04:36:14;16.13;;;10.87;;
11887;SDS011;6003;42.756;23.130;2023-07-31T04:38:41;14.83;;;10.50;;
11887;SDS011;6003;42.756;23.130;2023-07-31T04:41:08;13.63;;;10.07;;
11887;SDS011;6003;42.756;23.130;2023-07-31T04:43:35;11.90;;;9.10;;
11887;SDS011;6003;42.756;23.130;2023-07-31T04:46:04;9.63;;;7.70;;
11887;SDS011;6003;42.756;23.130;2023-07-31T04:48:31;7.50;;;6.70;;
11887;SDS011;6003;42.756;23.130;2023-07-31T04:50:57;8.57;;;7.07;;
11887;SDS011;6003;42.756;23.130;2023-07-31T04:53:26;8.23;;;7.00;;
11887;SDS011;6003;42.756;23.130;2023-07-31T04:55:53;7.87;;;7.07;;
11887;SDS011;6003;42.756;23.130;2023-07-31T04:58:19;8.40;;;7.13;;
11887;SDS011;6003;42.756;23.130;2023-07-31T05:00:46;7.30;;;6.60;;
11887;SDS011;6003;42.756;23.130;2023-07-31T05:03:13;7.37;;;6.67;;
11887;SDS011;6003;42.756;23.130;2023-07-31T05:05:40;7.83;;;5.77;;
11887;SDS011;6003;42.756;23.130;2023-07-31T05:08:06;9.37;;;6.67;;
11887;SDS011;6003;42.756;23.130;2023-07-31T05:10:35;6.50;;;5.73;;
11887;SDS011;6003;42.756;23.130;2023-07-31T05:13:01;6.23;;;5.70;;
11887;SDS011;6003;42.756;23.130;2023-07-31T05:15:28;5.90;;;5.40;;
11887;SDS011;6003;42.756;23.130;2023-07-31T05:17:55;5.97;;;5.40;;
11887;SDS011;6003;42.756;23.130;2023-07-31T05:20:22;5.50;;;5.00;;
11887;SDS011;6003;42.756;23.130;2023-07-31T05:22:49;5.00;;;4.13;;
11887;SDS011;6003;42.756;23.130;2023-07-31T05:25:17;6.20;;;4.67;;
11887;SDS011;6003;42.756;23.130;2023-07-31T05:27:45;5.30;;;4.83;;
11887;SDS011;6003;42.756;23.130;2023-07-31T05:30:12;4.80;;;4.50;;
11887;SDS011;6003;42.756;23.130;2023-07-31T05:32:39;5.70;;;4.90;;
11887;SDS011;6003;42.756;23.130;2023-07-31T05:35:06;4.30;;;3.90;;
11887;SDS011;6003;42.756;23.130;2023-07-31T05:37:34;4.60;;;4.20;;
11887;SDS011;6003;42.756;23.130;2023-07-31T05:40:00;4.50;;;4.17;;
11887;SDS011;6003;42.756;23.130;2023-07-31T05:42:27;3.87;;;3.57;;
11887;SDS011;6003;42.756;23.130;2023-07-31T05:44:56;4.00;;;3.70;;
11887;SDS011;6003;42.756;23.130;2023-07-31T05:47:22;5.83;;;3.93;;
11887;SDS011;6003;42.756;23.130;2023-07-31T05:49:49;3.90;;;3.60;;
11887;SDS011;6003;42.756;23.130;2023-07-31T05:52:17;3.90;;;3.50;;
11887;SDS011;6003;42.756;23.130;2023-07-31T05:54:44;3.83;;;3.53;;
11887;SDS011;6003;42.756;23.130;2023-07-31T05:57:11;3.97;;;3.57;;
11887;SDS011;6003;42.756;23.130;2023-07-31T05:59:38;4.07;;;3.67;;
11887;SDS011;6003;42.756;23.130;2023-07-31T06:02:07;3.10;;;2.90;;
11887;SDS011;6003;42.756;23.130;2023-07-31T06:04:34;3.17;;;2.97;;
11887;SDS011;6003;42.756;23.130;2023-07-31T06:07:00;2.70;;;2.50;;
11887;SDS011;6003;42.756;23.130;2023-07-31T06:09:28;3.50;;;3.20;;
11887;SDS011;6003;42.756;23.130;2023-07-31T06:11:55;2.63;;;2.47;;
11887;SDS011;6003;42.756;23.130;2023-07-31T06:14:22;2.47;;;2.30;;
11887;SDS011;6003;42.756;23.130;2023-07-31T06:16:49;2.30;;;2.10;;
11887;SDS011;6003;42.756;23.130;2023-07-31T06:19:17;2.30;;;2.20;;
11887;SDS011;6003;42.756;23.130;2023-07-31T06:21:45;2.63;;;2.33;;
11887;SDS011;6003;42.756;23.130;2023-07-31T06:24:12;3.00;;;2.70;;
11887;SDS011;6003;42.756;23.130;2023-07-31T06:26:44;2.27;;;2.17;;
11887;SDS011;6003;42.756;23.130;2023-07-31T06:29:10;2.60;;;2.40;;
11887;SDS011;6003;42.756;23.130;2023-07-31T06:31:37;2.83;;;2.60;;
11887;SDS011;6003;42.756;23.130;2023-07-31T06:34:04;2.07;;;1.97;;
11887;SDS011;6003;42.756;23.130;2023-07-31T06:36:32;2.80;;;2.60;;
11887;SDS011;6003;42.756;23.130;2023-07-31T06:38:59;2.30;;;2.20;;
11887;SDS011;6003;42.756;23.130;2023-07-31T06:41:26;1.83;;;1.73;;
11887;SDS011;6003;42.756;23.130;2023-07-31T06:43:52;2.27;;;2.17;;
11887;SDS011;6003;42.756;23.130;2023-07-31T06:46:19;1.97;;;1.87;;
11887;SDS011;6003;42.756;23.130;2023-07-31T06:48:46;2.13;;;2.03;;
11887;SDS011;6003;42.756;23.130;2023-07-31T06:51:13;2.40;;;2.20;;
11887;SDS011;6003;42.756;23.130;2023-07-31T06:53:41;2.37;;;1.90;;
11887;SDS011;6003;42.756;23.130;2023-07-31T06:56:10;1.73;;;1.63;;
11887;SDS011;6003;42.756;23.130;2023-07-31T06:58:37;1.90;;;1.80;;
11887;SDS011;6003;42.756;23.130;2023-07-31T07:01:03;2.40;;;2.00;;
11887;SDS011;6003;42.756;23.130;2023-07-31T07:03:30;1.80;;;1.70;;
11887;SDS011;6003;42.756;23.130;2023-07-31T07:05:58;2.10;;;2.00;;
11887;SDS011;6003;42.756;23.130;2023-07-31T07:08:25;1.90;;;1.80;;
11887;SDS011;6003;42.756;23.130;2023-07-31T07:10:53;1.77;;;1.67;;
11887;SDS011;6003;42.756;23.130;2023-07-31T07:13:21;2.10;;;2.00;;
11887;SDS011;6003;42.756;23.130;2023-07-31T07:15:48;2.00;;;1.90;;
11887;SDS011;6003;42.756;23.130;2023-07-31T07:18:15;2.00;;;1.90;;
11887;SDS011;6003;42.756;23.130;2023-07-31T07:20:46;2.33;;;2.13;;
11887;SDS011;6003;42.756;23.130;2023-07-31T07:23:13;2.00;;;1.90;;
11887;SDS011;6003;42.756;23.130;2023-07-31T07:25:40;1.83;;;1.73;;
11887;SDS011;6003;42.756;23.130;2023-07-31T07:28:08;3.03;;;1.70;;
11887;SDS011;6003;42.756;23.130;2023-07-31T07:30:35;1.87;;;1.77;;
11887;SDS011;6003;42.756;23.130;2023-07-31T07:33:02;2.00;;;1.90;;
11887;SDS011;6003;42.756;23.130;2023-07-31T07:35:29;1.90;;;1.80;;
11887;SDS011;6003;42.756;23.130;2023-07-31T07:37:56;1.90;;;1.80;;
11887;SDS011;6003;42.756;23.130;2023-07-31T07:40:23;2.30;;;1.90;;
11887;SDS011;6003;42.756;23.130;2023-07-31T07:42:50;2.00;;;1.90;;
11887;SDS011;6003;42.756;23.130;2023-07-31T07:45:18;2.10;;;1.98;;
11887;SDS011;6003;42.756;23.130;2023-07-31T07:47:45;1.63;;;1.52;;
11887;SDS011;6003;42.756;23.130;2023-07-31T07:50:12;1.90;;;1.80;;
11887;SDS011;6003;42.756;23.130;2023-07-31T07:52:39;2.07;;;1.97;;
11887;SDS011;6003;42.756;23.130;2023-07-31T07:55:06;1.90;;;1.80;;
11887;SDS011;6003;42.756;23.130;2023-07-31T07:57:33;1.90;;;1.80;;
11887;SDS011;6003;42.756;23.130;2023-07-31T08:00:00;2.13;;;1.98;;
11887;SDS011;6003;42.756;23.130;2023-07-31T08:02:28;2.27;;;2.07;;
11887;SDS011;6003;42.756;23.130;2023-07-31T08:04:55;1.50;;;1.50;;
11887;SDS011;6003;42.756;23.130;2023-07-31T08:07:22;1.80;;;1.70;;
11887;SDS011;6003;42.756;23.130;2023-07-31T08:09:48;2.08;;;1.98;;
11887;SDS011;6003;42.756;23.130;2023-07-31T08:12:16;1.75;;;1.65;;
11887;SDS011;6003;42.756;23.130;2023-07-31T08:14:43;1.70;;;1.60;;
11887;SDS011;6003;42.756;23.130;2023-07-31T08:17:09;1.80;;;1.70;;
11887;SDS011;6003;42.756;23.130;2023-07-31T08:19:38;3.30;;;1.45;;
11887;SDS011;6003;42.756;23.130;2023-07-31T08:22:05;1.40;;;1.30;;
11887;SDS011;6003;42.756;23.130;2023-07-31T08:24:31;1.42;;;1.33;;
11887;SDS011;6003;42.756;23.130;2023-07-31T08:26:58;1.80;;;1.70;;
11887;SDS011;6003;42.756;23.130;2023-07-31T08:29:25;1.40;;;1.40;;
11887;SDS011;6003;42.756;23.130;2023-07-31T08:31:52;1.65;;;1.55;;
11887;SDS011;6003;42.756;23.130;2023-07-31T08:34:19;1.65;;;1.55;;
11887;SDS011;6003;42.756;23.130;2023-07-31T08:36:47;1.75;;;1.67;;
11887;SDS011;6003;42.756;23.130;2023-07-31T08:39:15;1.80;;;1.70;;
11887;SDS011;6003;42.756;23.130;2023-07-31T08:41:42;1.67;;;1.58;;
11887;SDS011;6003;42.756;23.130;2023-07-31T08:44:09;2.00;;;1.90;;
11887;SDS011;6003;42.756;23.130;2023-07-31T08:46:38;1.65;;;1.55;;
11887;SDS011;6003;42.756;23.130;2023-07-31T08:49:06;2.00;;;1.90;;
11887;SDS011;6003;42.756;23.130;2023-07-31T08:51:34;2.38;;;1.60;;
11887;SDS011;6003;42.756;23.130;2023-07-31T08:54:02;1.80;;;1.70;;
11887;SDS011;6003;42.756;23.130;2023-07-31T08:56:30;1.58;;;1.48;;
11887;SDS011;6003;42.756;23.130;2023-07-31T08:58:58;1.60;;;1.50;;
11887;SDS011;6003;42.756;23.130;2023-07-31T09:01:28;1.90;;;1.80;;
11887;SDS011;6003;42.756;23.130;2023-07-31T09:03:56;1.58;;;1.48;;
11887;SDS011;6003;42.756;23.130;2023-07-31T09:06:25;1.90;;;1.70;;
11887;SDS011;6003;42.756;23.130;2023-07-31T09:08:54;1.70;;;1.60;;
11887;SDS011;6003;42.756;23.130;2023-07-31T09:11:23;1.48;;;1.48;;
11887;SDS011;6003;42.756;23.130;2023-07-31T09:13:50;1.63;;;1.52;;
11887;SDS011;6003;42.756;23.130;2023-07-31T09:16:19;1.85;;;1.75;;
11887;SDS011;6003;42.756;23.130;2023-07-31T09:18:55;1.90;;;1.80;;
11887;SDS011;6003;42.756;23.130;2023-07-31T09:21:23;2.00;;;1.90;;
11887;SDS011;6003;42.756;23.130;2023-07-31T09:23:51;1.40;;;1.40;;
11887;SDS011;6003;42.756;23.130;2023-07-31T09:26:30;1.60;;;1.50;;
11887;SDS011;6003;42.756;23.130;2023-07-31T09:28:57;1.83;;;1.73;;
11887;SDS011;6003;42.756;23.130;2023-07-31T09:31:37;1.20;;;1.20;;
11887;SDS011;6003;42.756;23.130;2023-07-31T09:34:06;1.80;;;1.70;;
11887;SDS011;6003;42.756;23.130;2023-07-31T09:36:38;1.52;;;1.48;;
11887;SDS011;6003;42.756;23.130;2023-07-31T09:39:07;3.80;;;1.73;;
11887;SDS011;6003;42.756;23.130;2023-07-31T09:41:37;1.45;;;1.38;;
11887;SDS011;6003;42.756;23.130;2023-07-31T09:44:05;1.35;;;1.30;;
11887;SDS011;6003;42.756;23.130;2023-07-31T09:46:34;1.73;;;1.63;;
11887;SDS011;6003;42.756;23.130;2023-07-31T09:49:08;1.60;;;1.50;;
11887;SDS011;6003;42.756;23.130;2023-07-31T09:51:35;1.42;;;1.38;;
11887;SDS011;6003;42.756;23.130;2023-07-31T09:54:08;1.55;;;1.45;;
11887;SDS011;6003;42.756;23.130;2023-07-31T09:56:38;1.20;;;1.20;;
11887;SDS011;6003;42.756;23.130;2023-07-31T09:59:10;1.23;;;1.23;;
11887;SDS011;6003;42.756;23.130;2023-07-31T10:01:37;1.80;;;1.70;;
11887;SDS011;6003;42.756;23.130;2023-07-31T10:04:05;1.80;;;1.42;;
11887;SDS011;6003;42.756;23.130;2023-07-31T10:06:34;1.40;;;1.40;;
11887;SDS011;6003;42.756;23.130;2023-07-31T10:09:02;1.45;;;1.35;;
11887;SDS011;6003;42.756;23.130;2023-07-31T10:11:31;1.52;;;1.50;;
11887;SDS011;6003;42.756;23.130;2023-07-31T10:14:04;1.40;;;1.40;;
11887;SDS011;6003;42.756;23.130;2023-07-31T10:16:32;1.63;;;1.52;;
11887;SDS011;6003;42.756;23.130;2023-07-31T10:18:59;1.23;;;1.23;;
11887;SDS011;6003;42.756;23.130;2023-07-31T10:21:26;1.70;;;1.60;;
11887;SDS011;6003;42.756;23.130;2023-07-31T10:23:54;1.42;;;1.33;;
11887;SDS011;6003;42.756;23.130;2023-07-31T10:26:22;1.30;;;1.20;;
11887;SDS011;6003;42.756;23.130;2023-07-31T10:28:51;2.58;;;1.20;;
11887;SDS011;6003;42.756;23.130;2023-07-31T10:31:20;1.35;;;1.35;;
11887;SDS011;6003;42.756;23.130;2023-07-31T10:33:47;1.52;;;1.42;;
11887;SDS011;6003;42.756;23.130;2023-07-31T10:36:17;1.10;;;1.10;;
11887;SDS011;6003;42.756;23.130;2023-07-31T10:38:44;1.25;;;1.25;;
11887;SDS011;6003;42.756;23.130;2023-07-31T10:41:11;1.38;;;1.30;;
11887;SDS011;6003;42.756;23.130;2023-07-31T10:43:38;1.30;;;1.30;;
11887;SDS011;6003;42.756;23.130;2023-07-31T10:46:08;1.50;;;1.50;;
11887;SDS011;6003;42.756;23.130;2023-07-31T10:48:39;1.70;;;1.60;;
11887;SDS011;6003;42.756;23.130;2023-07-31T10:51:07;1.58;;;1.48;;
11887;SDS011;6003;42.756;23.130;2023-07-31T10:53:36;1.45;;;1.40;;
11887;SDS011;6003;42.756;23.130;2023-07-31T10:56:03;1.40;;;1.30;;
11887;SDS011;6003;42.756;23.130;2023-07-31T10:58:31;1.50;;;1.50;;
11887;SDS011;6003;42.756;23.130;2023-07-31T11:01:00;1.48;;;1.40;;
11887;SDS011;6003;42.756;23.130;2023-07-31T11:03:41;1.55;;;1.48;;
11887;SDS011;6003;42.756;23.130;2023-07-31T11:06:10;2.45;;;1.70;;
11887;SDS011;6003;42.756;23.130;2023-07-31T11:08:41;2.10;;;2.00;;
11887;SDS011;6003;42.756;23.130;2023-07-31T11:11:10;2.00;;;1.90;;
11887;SDS011;6003;42.756;23.130;2023-07-31T11:13:42;1.95;;;1.77;;
11887;SDS011;6003;42.756;23.130;2023-07-31T11:16:11;2.00;;;1.90;;
11887;SDS011;6003;42.756;23.130;2023-07-31T11:18:39;1.95;;;1.85;;
11887;SDS011;6003;42.756;23.130;2023-07-31T11:21:08;2.00;;;1.90;;
11887;SDS011;6003;42.756;23.130;2023-07-31T11:23:38;1.80;;;1.70;;
11887;SDS011;6003;42.756;23.130;2023-07-31T11:26:04;2.35;;;1.85;;
11887;SDS011;6003;42.756;23.130;2023-07-31T11:28:32;2.30;;;2.20;;
11887;SDS011;6003;42.756;23.130;2023-07-31T11:31:00;2.40;;;2.10;;
11887;SDS011;6003;42.756;23.130;2023-07-31T11:33:27;3.17;;;2.88;;
11887;SDS011;6003;42.756;23.130;2023-07-31T11:35:54;3.28;;;2.97;;
11887;SDS011;6003;42.756;23.130;2023-07-31T11:38:23;2.95;;;2.75;;
11887;SDS011;6003;42.756;23.130;2023-07-31T11:40:50;3.10;;;2.90;;
11887;SDS011;6003;42.756;23.130;2023-07-31T11:43:18;3.47;;;3.22;;
11887;SDS011;6003;42.756;23.130;2023-07-31T11:45:46;4.60;;;4.30;;
11887;SDS011;6003;42.756;23.130;2023-07-31T11:48:21;4.72;;;4.32;;
11887;SDS011;6003;42.756;23.130;2023-07-31T11:50:49;5.03;;;4.63;;
11887;SDS011;6003;42.756;23.130;2023-07-31T11:53:17;3.85;;;3.58;;
11887;SDS011;6003;42.756;23.130;2023-07-31T11:55:48;4.03;;;3.72;;
11887;SDS011;6003;42.756;23.130;2023-07-31T11:58:16;4.07;;;3.78;;
11887;SDS011;6003;42.756;23.130;2023-07-31T12:00:44;4.90;;;4.50;;
11887;SDS011;6003;42.756;23.130;2023-07-31T12:03:12;3.38;;;3.17;;
11887;SDS011;6003;42.756;23.130;2023-07-31T12:05:39;4.03;;;3.72;;
11887;SDS011;6003;42.756;23.130;2023-07-31T12:08:09;4.38;;;3.63;;
11887;SDS011;6003;42.756;23.130;2023-07-31T12:10:37;3.10;;;2.90;;
11887;SDS011;6003;42.756;23.130;2023-07-31T12:13:08;3.40;;;3.10;;
11887;SDS011;6003;42.756;23.130;2023-07-31T12:15:39;3.92;;;3.65;;
11887;SDS011;6003;42.756;23.130;2023-07-31T12:18:08;3.63;;;3.38;;
11887;SDS011;6003;42.756;23.130;2023-07-31T12:20:39;4.15;;;3.85;;
11887;SDS011;6003;42.756;23.130;2023-07-31T12:23:12;4.40;;;4.05;;
11887;SDS011;6003;42.756;23.130;2023-07-31T12:25:40;3.33;;;3.13;;
11887;SDS011;6003;42.756;23.130;2023-07-31T12:28:08;3.47;;;3.28;;
11887;SDS011;6003;42.756;23.130;2023-07-31T12:30:38;3.13;;;2.92;;
11887;SDS011;6003;42.756;23.130;2023-07-31T12:33:06;3.47;;;3.22;;
11887;SDS011;6003;42.756;23.130;2023-07-31T12:35:37;3.42;;;3.22;;
11887;SDS011;6003;42.756;23.130;2023-07-31T12:38:04;3.58;;;3.28;;
11887;SDS011;6003;42.756;23.130;2023-07-31T12:40:31;3.00;;;2.80;;
11887;SDS011;6003;42.756;23.130;2023-07-31T12:43:00;3.28;;;3.03;;
11887;SDS011;6003;42.756;23.130;2023-07-31T12:45:30;3.75;;;3.45;;
11887;SDS011;6003;42.756;23.130;2023-07-31T12:47:57;4.00;;;3.70;;
11887;SDS011;6003;42.756;23.130;2023-07-31T12:50:24;3.55;;;3.35;;
11887;SDS011;6003;42.756;23.130;2023-07-31T12:52:51;3.50;;;3.30;;
11887;SDS011;6003;42.756;23.130;2023-07-31T12:55:18;3.20;;;3.00;;
11887;SDS011;6003;42.756;23.130;2023-07-31T12:57:45;2.35;;;2.25;;
11887;SDS011;6003;42.756;23.130;2023-07-31T13:00:12;2.20;;;2.10;;
11887;SDS011;6003;42.756;23.130;2023-07-31T13:02:41;2.35;;;2.25;;
11887;SDS011;6003;42.756;23.130;2023-07-31T13:05:08;2.63;;;2.35;;
11887;SDS011;6003;42.756;23.130;2023-07-31T13:07:35;3.40;;;2.70;;
11887;SDS011;6003;42.756;23.130;2023-07-31T13:10:01;2.60;;;2.50;;
11887;SDS011;6003;42.756;23.130;2023-07-31T13:12:28;3.15;;;2.95;;
11887;SDS011;6003;42.756;23.130;2023-07-31T13:14:55;2.95;;;2.75;;
11887;SDS011;6003;42.756;23.130;2023-07-31T13:17:22;3.00;;;2.80;;
11887;SDS011;6003;42.756;23.130;2023-07-31T13:19:50;2.65;;;2.45;;
11887;SDS011;6003;42.756;23.130;2023-07-31T13:22:17;3.13;;;2.13;;
11887;SDS011;6003;42.756;23.130;2023-07-31T13:24:44;2.80;;;2.60;;
11887;SDS011;6003;42.756;23.130;2023-07-31T13:27:11;2.40;;;2.30;;
11887;SDS011;6003;42.756;23.130;2023-07-31T13:29:37;2.85;;;2.53;;
11887;SDS011;6003;42.756;23.130;2023-07-31T13:32:05;2.88;;;2.67;;
11887;SDS011;6003;42.756;23.130;2023-07-31T13:34:32;3.00;;;2.80;;
11887;SDS011;6003;42.756;23.130;2023-07-31T13:37:00;3.00;;;2.58;;
11887;SDS011;6003;42.756;23.130;2023-07-31T13:39:27;2.40;;;2.30;;
11887;SDS011;6003;42.756;23.130;2023-07-31T13:41:54;2.90;;;2.70;;
11887;SDS011;6003;42.756;23.130;2023-07-31T13:44:20;2.95;;;2.75;;
11887;SDS011;6003;42.756;23.130;2023-07-31T13:46:47;2.90;;;2.70;;
11887;SDS011;6003;42.756;23.130;2023-07-31T13:49:14;2.58;;;2.38;;
11887;SDS011;6003;42.756;23.130;2023-07-31T13:51:41;2.50;;;2.30;;
11887;SDS011;6003;42.756;23.130;2023-07-31T13:54:09;2.28;;;2.17;;
11887;SDS011;6003;42.756;23.130;2023-07-31T13:56:37;2.13;;;2.03;;
11887;SDS011;6003;42.756;23.130;2023-07-31T13:59:04;2.40;;;2.30;;
11887;SDS011;6003;42.756;23.130;2023-07-31T14:01:31;3.88;;;2.47;;
11887;SDS011;6003;42.756;23.130;2023-07-31T14:03:57;2.35;;;2.25;;
11887;SDS011;6003;42.756;23.130;2023-07-31T14:06:24;2.40;;;2.30;;
11887;SDS011;6003;42.756;23.130;2023-07-31T14:08:51;2.67;;;2.47;;
11887;SDS011;6003;42.756;23.130;2023-07-31T14:11:20;3.08;;;2.22;;
11887;SDS011;6003;42.756;23.130;2023-07-31T14:13:46;2.20;;;2.10;;
11887;SDS011;6003;42.756;23.130;2023-07-31T14:16:13;2.20;;;2.10;;
11887;SDS011;6003;42.756;23.130;2023-07-31T14:18:40;2.35;;;2.25;;
11887;SDS011;6003;42.756;23.130;2023-07-31T14:21:07;2.15;;;2.05;;
11887;SDS011;6003;42.756;23.130;2023-07-31T14:23:34;2.55;;;2.30;;
11887;SDS011;6003;42.756;23.130;2023-07-31T14:26:01;2.38;;;2.17;;
11887;SDS011;6003;42.756;23.130;2023-07-31T14:28:29;2.30;;;2.10;;
11887;SDS011;6003;42.756;23.130;2023-07-31T14:30:56;2.00;;;1.90;;
11887;SDS011;6003;42.756;23.130;2023-07-31T14:33:23;2.33;;;2.22;;
11887;SDS011;6003;42.756;23.130;2023-07-31T14:35:49;2.60;;;2.40;;
11887;SDS011;6003;42.756;23.130;2023-07-31T14:38:16;3.42;;;2.58;;
11887;SDS011;6003;42.756;23.130;2023-07-31T14:40:43;2.00;;;1.90;;
11887;SDS011;6003;42.756;23.130;2023-07-31T14:43:10;2.95;;;1.83;;
11887;SDS011;6003;42.756;23.130;2023-07-31T14:45:38;1.90;;;1.80;;